Bei Facebook empfehlenBei Twitter postenGoogle plusPinterest

Das Wetter im Erzgebirge am 16.09.2017

Wetter und Klima am 16.09.2017 Holzhau im Erzgebirge (630m ü.NN)
Letzte gemessene Temperatur und Uhrzeit der Messung23:45:00 Uhr4.40 °C
Temperatur (Maximum / Höchstwert) und Uhrzeit der Messung13:45:00 Uhr13.70 °C
Temperatur (Minimum / Tiefstwert) und Uhrzeit der Messung06:30:001.80 °C
Errechneter Absolutwert der Temperaturschwankungen zwischen Tmin und Tmax des Tages11.90 K
Errechnete Tagesmitteltemperatur7.03333 °C
Gesamt - Niederschlag des Tages (in flüssiger Form)0.52 Liter / m²
Luftdruck (Maximum / Höchstwert) und Zeitpunkt der Messung23:30:00 Uhr1010.30 hPa
Luftdruck (Minimum / Tiefstwert) und Zeitpunkt der Messung06:30:00 Uhr1007.70 hPa
Errechneter Absolutwert der Luftdruckschwankungen des Tages2.60 hPa
Höchste gemessene Windgeschwindigkeit und Uhrzeit der Messung23:45:00 Uhr0.00 km/h
Errechnete Windhäufigkeit in Relation zu den Messwerten des Tages0.00000 %
Niedrigste Windkühle (Windchill) und Zeitpunkt der Messung06:30:00 Uhr1.80 °C
Taupunkt (Maximum / Höchstwert) und Uhrzeit der Messung13:45:00 Uhr9.90 °C
Taupunkt (Minimum / Tiefstwert) und Uhrzeit der Messung06:30:000.90 °C
Anzahl der automatisch eingelesenen Messwerte 96

Detaillierte Wetter- und Klima- Messwerte für den 16.09.2017 in Holzhau im Erzgebirge (630m ü.NN)
ZeitTemperaturLuftdruckRel. LuftfeuchteWindWindrichtungWindchillTaupunktNiederschlag l/m²
23:45:004.40 °C1010.20 hPa92.00 %3.20 °C0.52
23:30:004.80 °C1010.30 hPa92.00 %3.60 °C0.52
23:15:005.20 °C1010.20 hPa93.00 %4.20 °C0.52
23:00:005.40 °C1010.20 hPa93.00 %4.40 °C0.52
22:45:005.80 °C1010.10 hPa93.00 %4.80 °C0.52
22:30:005.90 °C1010.10 hPa92.00 %4.70 °C0.52
22:15:006.30 °C1010.10 hPa92.00 %5.10 °C0.52
22:00:006.60 °C1009.80 hPa92.00 %5.40 °C0.52
21:45:006.60 °C1009.90 hPa92.00 %5.40 °C0.52
21:30:006.40 °C1009.90 hPa92.00 %5.20 °C0.52
21:15:006.90 °C1009.80 hPa91.00 %5.50 °C0.52
21:00:007.40 °C1009.90 hPa91.00 %6.00 °C0.52
20:45:007.60 °C1009.90 hPa91.00 %6.20 °C0.52
20:30:007.60 °C1009.80 hPa90.00 %6.10 °C0.52
20:15:007.90 °C1009.70 hPa91.00 %6.50 °C0.52
20:00:008.10 °C1009.60 hPa90.00 %6.60 °C0.52
19:45:008.30 °C1009.60 hPa90.00 %6.80 °C0.52
19:30:008.50 °C1009.50 hPa90.00 %7.00 °C0.52
19:15:008.70 °C1009.40 hPa90.00 %7.20 °C0.52
19:00:008.90 °C1009.30 hPa89.00 %7.20 °C0.52
18:45:009.10 °C1009.40 hPa89.00 %7.40 °C0.52
18:30:009.30 °C1009.30 hPa88.00 %7.40 °C0.52
18:15:009.50 °C1009.30 hPa87.00 %7.40 °C0.52
18:00:009.90 °C1009.30 hPa87.00 %7.80 °C0.52
17:45:0010.30 °C1009.20 hPa87.00 %8.20 °C0.52
17:30:0010.70 °C1009.00 hPa87.00 %8.60 °C0.52
17:15:0010.90 °C1009.00 hPa86.00 %8.70 °C0.52
17:00:0011.00 °C1009.00 hPa86.00 %8.80 °C0.52
16:45:0011.10 °C1009.00 hPa86.00 %8.80 °C0.52
16:30:0010.90 °C1008.90 hPa88.00 %9.00 °C0.52
16:15:0010.10 °C1008.90 hPa88.00 %8.20 °C0.52
16:00:009.90 °C1009.00 hPa87.00 %7.80 °C0.52
15:45:009.90 °C1009.10 hPa85.00 %7.50 °C0.52
15:30:009.80 °C1009.20 hPa83.00 %7.10 °C 
15:15:0011.30 °C1009.10 hPa78.00 %7.60 °C 
15:00:0013.10 °C1008.70 hPa77.00 %9.20 °C 
14:45:0013.30 °C1008.80 hPa78.00 %9.50 °C 
14:30:0013.20 °C1008.70 hPa79.00 %9.60 °C 
14:15:0012.90 °C1008.80 hPa78.00 %9.20 °C 
14:00:0013.40 °C1008.80 hPa77.00 %9.50 °C 
13:45:0013.70 °C1008.80 hPa78.00 %9.90 °C 
13:30:0013.60 °C1008.70 hPa78.00 %9.80 °C 
13:15:0013.40 °C1008.90 hPa78.00 %9.60 °C 
13:00:0013.10 °C1009.00 hPa80.00 %9.70 °C 
12:45:0012.60 °C1009.30 hPa83.00 %9.80 °C 
12:30:0012.10 °C1009.30 hPa85.00 %9.70 °C 
12:15:0011.60 °C1009.30 hPa88.00 %9.70 °C 
12:00:0011.00 °C1009.10 hPa90.00 %9.40 °C 
11:45:0010.70 °C1009.20 hPa91.00 %9.30 °C 
11:30:0010.60 °C1009.20 hPa93.00 %9.50 °C 
11:15:0010.30 °C1009.10 hPa94.00 %9.40 °C 
11:00:009.90 °C1009.10 hPa95.00 %9.10 °C 
10:45:009.80 °C1009.10 hPa95.00 %9.00 °C 
10:30:009.20 °C1009.00 hPa96.00 %8.60 °C 
10:15:008.60 °C1008.90 hPa95.00 %7.80 °C 
10:00:008.10 °C1008.80 hPa96.00 %7.50 °C 
09:45:007.60 °C1008.70 hPa96.00 %7.00 °C 
09:30:006.80 °C1008.60 hPa96.00 %6.20 °C 
09:15:006.10 °C1008.50 hPa95.00 %5.40 °C 
09:00:005.80 °C1008.10 hPa95.00 %5.10 °C 
08:45:005.50 °C1008.30 hPa96.00 %4.90 °C 
08:30:005.00 °C1008.00 hPa95.00 %4.30 °C 
08:15:004.60 °C1007.90 hPa95.00 %3.90 °C 
08:00:004.10 °C1008.00 hPa95.00 %3.40 °C 
07:45:003.60 °C1007.80 hPa95.00 %2.90 °C 
07:30:003.40 °C1007.90 hPa95.00 %2.70 °C 
07:15:002.80 °C1007.90 hPa94.00 %1.90 °C 
07:00:002.60 °C1007.80 hPa94.00 %1.70 °C 
06:45:001.90 °C1007.80 hPa94.00 %1.00 °C 
06:30:001.80 °C1007.70 hPa94.00 %0.90 °C 
06:15:001.80 °C1008.00 hPa94.00 %0.90 °C 
06:00:001.90 °C1007.90 hPa94.00 %1.00 °C 
05:45:002.30 °C1007.80 hPa94.00 %1.40 °C 
05:30:002.50 °C1008.10 hPa94.00 %1.60 °C 
05:15:002.30 °C1008.30 hPa94.00 %1.40 °C 
05:00:002.20 °C1008.30 hPa94.00 %1.30 °C 
04:45:002.10 °C1008.30 hPa93.00 %1.10 °C 
04:30:002.30 °C1008.40 hPa93.00 %1.30 °C 
04:15:002.60 °C1008.40 hPa93.00 %1.60 °C 
04:00:002.90 °C1008.50 hPa93.00 %1.90 °C 
03:45:003.00 °C1008.60 hPa93.00 %2.00 °C 
03:30:003.20 °C1008.40 hPa93.00 %2.20 °C 
03:15:003.30 °C1008.40 hPa93.00 %2.30 °C 
03:00:003.50 °C1008.70 hPa93.00 %2.50 °C 
02:45:003.80 °C1008.60 hPa93.00 %2.80 °C 
02:30:003.90 °C1008.80 hPa93.00 %2.90 °C 
02:15:003.90 °C1008.90 hPa93.00 %2.90 °C 
02:00:003.80 °C1008.80 hPa93.00 %2.80 °C 
01:45:003.60 °C1009.00 hPa93.00 %2.60 °C 
01:30:003.40 °C1009.10 hPa93.00 %2.40 °C 
01:15:003.40 °C1009.10 hPa93.00 %2.40 °C 
01:00:003.30 °C1009.40 hPa93.00 %2.30 °C 
00:45:003.30 °C1009.40 hPa93.00 %2.30 °C 
00:30:003.30 °C1009.40 hPa93.00 %2.30 °C 
00:15:003.30 °C1009.20 hPa92.00 %2.10 °C 
00:00:003.50 °C1009.40 hPa92.00 %2.30 °C 

Permanenter Link zu dieser Seite: Wetter im Erzgebirge am 16.09.2017
Performance-Info: Die Erstellung der Seite / Statistik(en) / Tabelle(n) erforderte 5 Datenbankserver-Abfrage(n) und dauerte 114 Millisekunden. (Dieser Messwert ist von der Gesamt-Auslastung des Servers abhängig.)
Erzgebirge - Wetter | Erzgebirge - Wetter (Mobilgeräte) | Komplette Klimadatenbank